createdAt,value
2023-03-21T00:00:26.044Z,8.57
2023-03-21T00:01:28.013Z,8.13
2023-03-21T00:02:29.985Z,8.63
2023-03-21T00:03:33.795Z,9.18
2023-03-21T00:04:50.675Z,9.15
2023-03-21T00:05:54.270Z,9.95
2023-03-21T00:06:56.415Z,9.45
2023-03-21T00:08:00.414Z,9.55
2023-03-21T00:09:03.104Z,9.55
2023-03-21T00:10:15.493Z,10.15
2023-03-21T00:11:21.844Z,9.52
2023-03-21T00:12:23.732Z,8.75
2023-03-21T00:13:26.688Z,9.68
2023-03-21T00:14:31.025Z,9.88
2023-03-21T00:15:41.325Z,8.43
2023-03-21T00:16:52.542Z,9.55
2023-03-21T00:18:03.508Z,8.88
2023-03-21T00:19:06.575Z,9.10
2023-03-21T00:20:15.423Z,8.90
2023-03-21T00:21:43.979Z,9.68
2023-03-21T00:22:42.692Z,8.82
2023-03-21T00:23:46.427Z,9.20
2023-03-21T00:24:48.584Z,10.18
2023-03-21T00:25:50.518Z,10.05
2023-03-21T00:26:52.589Z,9.63
2023-03-21T00:28:07.443Z,9.35
2023-03-21T00:29:10.673Z,9.70
2023-03-21T00:30:13.052Z,10.05
2023-03-21T00:31:15.066Z,8.27
2023-03-21T00:32:18.015Z,9.02
2023-03-21T00:33:22.886Z,9.35
2023-03-21T00:34:36.476Z,9.13
2023-03-21T00:36:05.740Z,10.38
2023-03-21T00:37:09.171Z,8.80
2023-03-21T00:38:11.459Z,8.90
2023-03-21T00:39:14.302Z,8.73
2023-03-21T00:40:25.774Z,7.80
2023-03-21T00:41:42.012Z,8.85
2023-03-21T00:42:45.055Z,9.02
2023-03-21T00:43:47.066Z,9.85
2023-03-21T00:44:49.086Z,9.38
2023-03-21T00:45:52.079Z,10.30
2023-03-21T00:47:06.184Z,9.57
2023-03-21T00:48:09.997Z,9.60
2023-03-21T00:49:12.218Z,9.50
2023-03-21T00:50:14.197Z,9.52
2023-03-21T00:51:27.418Z,10.18
2023-03-21T00:52:40.227Z,9.20
2023-03-21T00:53:43.247Z,8.35
2023-03-21T00:54:45.202Z,8.93
2023-03-21T00:55:48.203Z,9.73
2023-03-21T00:56:50.150Z,9.65
2023-03-21T00:58:01.125Z,9.93
2023-03-21T00:59:04.620Z,10.88
2023-03-21T01:00:10.671Z,8.70
2023-03-21T01:01:12.912Z,10.38
2023-03-21T01:02:22.875Z,10.18
2023-03-21T01:03:26.774Z,9.25
2023-03-21T01:04:29.015Z,10.57
2023-03-21T01:05:51.026Z,9.57
2023-03-21T01:06:54.541Z,9.45
2023-03-21T01:07:56.981Z,9.82
2023-03-21T01:08:59.242Z,9.70
2023-03-21T01:10:01.449Z,9.02
2023-03-21T01:11:12.849Z,10.55
2023-03-21T01:12:14.892Z,9.85
2023-03-21T01:13:19.422Z,8.82
2023-03-21T01:14:23.982Z,9.30
2023-03-21T01:15:26.310Z,10.85
2023-03-21T01:16:28.361Z,10.60
2023-03-21T01:17:30.402Z,10.57
2023-03-21T01:18:33.461Z,9.63
2023-03-21T01:19:50.648Z,9.75
2023-03-21T01:20:56.416Z,11.02
2023-03-21T01:21:58.726Z,9.10
2023-03-21T01:23:01.046Z,11.20
2023-03-21T01:24:03.760Z,10.55
2023-03-21T01:25:21.522Z,10.45
2023-03-21T01:26:24.725Z,10.45
2023-03-21T01:27:26.601Z,11.05
2023-03-21T01:28:29.572Z,10.32
2023-03-21T01:29:31.675Z,10.85
2023-03-21T01:30:37.060Z,9.90
2023-03-21T01:31:42.697Z,10.07
2023-03-21T01:32:44.783Z,10.90
2023-03-21T01:33:47.082Z,10.68
2023-03-21T01:34:49.221Z,10.00
2023-03-21T01:35:57.576Z,8.90
2023-03-21T01:37:08.438Z,10.45
2023-03-21T01:38:11.403Z,9.73
2023-03-21T01:39:13.429Z,9.40
2023-03-21T01:40:19.617Z,10.68
2023-03-21T01:41:36.845Z,10.18
2023-03-21T01:42:43.810Z,9.70
2023-03-21T01:43:46.190Z,11.23
2023-03-21T01:44:57.685Z,10.27
2023-03-21T01:46:51.444Z,11.52
2023-03-21T01:47:56.248Z,9.98
2023-03-21T01:49:01.710Z,10.95
2023-03-21T01:50:05.016Z,10.02
2023-03-21T01:51:07.985Z,11.68
2023-03-21T01:52:23.493Z,10.23
2023-03-21T01:53:30.392Z,10.68
2023-03-21T01:54:37.617Z,11.73
2023-03-21T01:55:41.119Z,10.98
2023-03-21T01:56:47.150Z,9.52
2023-03-21T01:58:05.431Z,10.60
2023-03-21T01:59:36.765Z,10.38
2023-03-21T02:00:39.068Z,11.65
2023-03-21T02:01:42.466Z,9.98
2023-03-21T02:02:52.749Z,11.00
2023-03-21T02:03:55.618Z,11.43
2023-03-21T02:05:02.437Z,9.88
2023-03-21T02:06:12.773Z,9.52
2023-03-21T02:07:18.020Z,10.50
2023-03-21T02:08:25.871Z,10.60
2023-03-21T02:09:37.956Z,10.13
2023-03-21T02:10:42.163Z,10.35
2023-03-21T02:12:48.931Z,9.77
2023-03-21T02:13:55.842Z,10.32
2023-03-21T02:15:03.777Z,11.27
2023-03-21T02:16:36.591Z,10.13
2023-03-21T02:18:11.566Z,9.27
2023-03-21T02:19:53.311Z,9.70
2023-03-21T02:21:27.867Z,9.57
2023-03-21T02:22:58.229Z,9.07
2023-03-21T02:24:11.841Z,8.50
2023-03-21T02:25:31.974Z,9.43
2023-03-21T02:27:03.381Z,9.70
2023-03-21T02:28:13.594Z,10.13
2023-03-21T02:29:52.810Z,10.45
2023-03-21T02:31:23.468Z,9.40
2023-03-21T02:33:11.350Z,10.20
2023-03-21T02:34:32.136Z,10.55
2023-03-21T02:36:13.980Z,10.23
2023-03-21T02:37:21.393Z,9.38
2023-03-21T02:38:48.514Z,9.85
2023-03-21T02:40:12.031Z,10.27
2023-03-21T02:41:39.557Z,9.48
2023-03-21T02:43:01.476Z,10.57
2023-03-21T02:44:20.137Z,10.02
2023-03-21T02:45:30.745Z,8.73
2023-03-21T02:47:03.236Z,9.98
2023-03-21T02:48:26.843Z,9.45
2023-03-21T02:49:43.394Z,10.40
2023-03-21T02:51:07.812Z,9.05
2023-03-21T02:52:22.865Z,10.40
2023-03-21T02:53:34.313Z,10.48
2023-03-21T02:54:47.935Z,10.40
2023-03-21T02:55:53.010Z,12.70
2023-03-21T02:56:59.212Z,10.55
2023-03-21T02:58:12.288Z,10.25
2023-03-21T02:59:18.499Z,11.10
2023-03-21T03:00:23.467Z,10.60
2023-03-21T03:01:26.106Z,11.23
2023-03-21T03:02:29.687Z,10.80
2023-03-21T03:03:34.781Z,9.38
2023-03-21T03:04:37.209Z,12.13
2023-03-21T03:05:56.132Z,10.88
2023-03-21T03:07:13.808Z,10.98
2023-03-21T03:08:47.597Z,10.32
2023-03-21T03:10:37.438Z,11.20
2023-03-21T03:11:44.983Z,10.50
2023-03-21T03:13:31.602Z,10.45
2023-03-21T03:15:03.549Z,10.63
2023-03-21T03:16:22.127Z,10.30
2023-03-21T03:17:57.493Z,10.30
2023-03-21T03:19:01.552Z,9.82
2023-03-21T03:20:41.005Z,11.35
2023-03-21T03:21:51.703Z,9.43
2023-03-21T03:23:04.782Z,10.10
2023-03-21T03:24:29.564Z,10.70
2023-03-21T03:25:48.141Z,8.68
2023-03-21T03:26:59.000Z,10.80
2023-03-21T03:28:03.117Z,9.93
2023-03-21T03:30:12.299Z,9.45
2023-03-21T03:31:22.200Z,9.68
2023-03-21T03:32:37.302Z,11.60
2023-03-21T03:33:44.023Z,9.50
2023-03-21T03:34:51.565Z,9.98
2023-03-21T03:36:04.964Z,10.45
2023-03-21T03:37:16.419Z,9.60
2023-03-21T03:38:21.857Z,10.77
2023-03-21T03:39:36.378Z,11.00
2023-03-21T03:40:42.165Z,10.80
2023-03-21T03:42:10.002Z,10.98
2023-03-21T03:43:26.757Z,9.00
2023-03-21T03:44:30.161Z,11.43
2023-03-21T03:45:38.520Z,11.10
2023-03-21T03:46:52.259Z,10.60
2023-03-21T03:48:00.978Z,11.57
2023-03-21T03:49:12.408Z,12.07
2023-03-21T03:50:37.373Z,11.35
2023-03-21T03:51:51.918Z,10.60
2023-03-21T03:53:01.267Z,9.50
2023-03-21T03:54:10.427Z,10.43
2023-03-21T03:55:16.546Z,10.32
2023-03-21T03:56:19.080Z,8.65
2023-03-21T03:57:22.068Z,9.82
2023-03-21T03:58:36.087Z,10.52
2023-03-21T03:59:46.574Z,10.35
2023-03-21T04:00:49.787Z,9.90
2023-03-21T04:01:52.283Z,10.60
2023-03-21T04:02:54.593Z,10.30
2023-03-21T04:04:12.001Z,10.05
2023-03-21T04:05:15.563Z,9.88
2023-03-21T04:06:18.803Z,9.70
2023-03-21T04:07:22.464Z,11.07
2023-03-21T04:08:24.483Z,12.05
2023-03-21T04:09:43.028Z,10.70
2023-03-21T04:10:46.521Z,10.52
2023-03-21T04:11:48.874Z,10.40
2023-03-21T04:12:51.352Z,9.73
2023-03-21T04:13:53.343Z,9.57
2023-03-21T04:15:01.954Z,10.52
2023-03-21T04:16:13.182Z,10.23
2023-03-21T04:17:16.117Z,9.82
2023-03-21T04:18:18.471Z,9.73
2023-03-21T04:19:20.626Z,9.75
2023-03-21T04:20:34.166Z,9.75
2023-03-21T04:21:39.334Z,9.55
2023-03-21T04:22:41.521Z,9.95
2023-03-21T04:23:43.867Z,10.68
2023-03-21T04:24:45.854Z,11.70
2023-03-21T04:25:56.221Z,9.95
2023-03-21T04:26:59.007Z,9.15
2023-03-21T04:28:01.237Z,7.47
2023-03-21T04:29:03.862Z,9.48
2023-03-21T04:30:07.609Z,9.15
2023-03-21T04:31:25.016Z,9.88
2023-03-21T04:32:28.426Z,9.30
2023-03-21T04:33:30.579Z,9.60
2023-03-21T04:34:32.583Z,9.60
2023-03-21T04:35:37.682Z,10.27
2023-03-21T04:36:44.282Z,9.48
2023-03-21T04:37:46.925Z,9.90
2023-03-21T04:38:49.302Z,9.90
2023-03-21T04:39:51.613Z,9.40
2023-03-21T04:40:53.762Z,8.50
2023-03-21T04:41:55.988Z,9.23
2023-03-21T04:42:58.002Z,9.68
2023-03-21T04:44:00.377Z,10.77
2023-03-21T04:45:02.985Z,9.00
2023-03-21T04:46:05.120Z,10.38
2023-03-21T04:47:07.803Z,8.98
2023-03-21T04:48:09.788Z,9.65
2023-03-21T04:49:12.314Z,9.38
2023-03-21T04:50:16.061Z,10.20
2023-03-21T04:51:18.190Z,9.35
2023-03-21T04:52:20.318Z,8.93
2023-03-21T04:53:22.352Z,9.82
2023-03-21T04:54:24.562Z,11.30
2023-03-21T04:55:28.197Z,9.88
2023-03-21T04:56:32.725Z,9.07
2023-03-21T04:57:34.701Z,10.20
2023-03-21T04:58:36.820Z,10.65
2023-03-21T04:59:38.930Z,10.30
2023-03-21T05:00:41.219Z,7.80
2023-03-21T05:01:44.173Z,8.13
2023-03-21T05:02:46.341Z,8.32
2023-03-21T05:03:48.426Z,9.32
2023-03-21T05:04:50.576Z,8.15
2023-03-21T05:05:52.740Z,9.15
2023-03-21T05:06:56.422Z,8.85
2023-03-21T05:07:58.369Z,6.68
2023-03-21T05:09:01.836Z,8.70
2023-03-21T05:10:05.055Z,9.20
2023-03-21T05:11:07.173Z,8.63
2023-03-21T05:12:09.462Z,10.60
2023-03-21T05:13:11.437Z,8.75
2023-03-21T05:14:21.427Z,9.25
2023-03-21T05:15:23.687Z,8.93
2023-03-21T05:16:30.926Z,7.00
2023-03-21T05:17:33.009Z,8.32
2023-03-21T05:18:38.960Z,7.15
2023-03-21T05:19:41.594Z,7.45
2023-03-21T05:20:43.567Z,7.95
2023-03-21T05:21:45.693Z,9.57
2023-03-21T05:22:51.665Z,7.95
2023-03-21T05:23:58.519Z,7.72
2023-03-21T05:25:00.549Z,7.45
2023-03-21T05:26:02.519Z,7.60
2023-03-21T05:27:04.748Z,7.82
2023-03-21T05:28:08.117Z,8.13
2023-03-21T05:29:11.421Z,7.75
2023-03-21T05:30:18.007Z,7.93
2023-03-21T05:31:21.001Z,8.23
2023-03-21T05:32:23.062Z,8.00
2023-03-21T05:33:25.124Z,8.32
2023-03-21T05:34:28.220Z,9.50
2023-03-21T05:35:30.760Z,8.30
2023-03-21T05:36:34.270Z,7.53
2023-03-21T05:37:36.517Z,8.55
2023-03-21T05:38:42.975Z,8.27
2023-03-21T05:39:45.152Z,8.15
2023-03-21T05:40:48.223Z,8.65
2023-03-21T05:41:50.693Z,8.95
2023-03-21T05:42:52.565Z,8.27
2023-03-21T05:43:54.592Z,8.75
2023-03-21T05:44:56.627Z,9.15
2023-03-21T05:45:58.783Z,7.93
2023-03-21T05:47:01.063Z,9.00
2023-03-21T05:48:03.221Z,8.90
2023-03-21T05:49:05.562Z,7.40
2023-03-21T05:50:08.065Z,7.03
2023-03-21T05:51:10.123Z,7.75
2023-03-21T05:52:12.646Z,8.38
2023-03-21T05:53:14.645Z,8.70
2023-03-21T05:54:16.909Z,8.80
2023-03-21T05:55:19.154Z,7.93
2023-03-21T05:56:21.465Z,6.65
2023-03-21T05:57:23.455Z,7.22
2023-03-21T05:58:25.626Z,7.63
2023-03-21T05:59:27.820Z,6.47
2023-03-21T06:00:30.731Z,7.55
2023-03-21T06:01:32.977Z,9.18
2023-03-21T06:02:35.019Z,7.55
2023-03-21T06:03:37.349Z,7.63
2023-03-21T06:04:39.690Z,6.15
2023-03-21T06:05:41.759Z,6.97
2023-03-21T06:06:43.987Z,7.13
2023-03-21T06:07:46.159Z,7.22
2023-03-21T06:08:49.121Z,7.32
2023-03-21T06:09:51.107Z,7.22
2023-03-21T06:10:53.151Z,6.72
2023-03-21T06:11:57.098Z,6.72
2023-03-21T06:12:59.120Z,6.85
2023-03-21T06:14:01.282Z,6.35
2023-03-21T06:15:05.642Z,6.93
2023-03-21T06:16:08.080Z,7.28
2023-03-21T06:17:10.321Z,5.78
2023-03-21T06:18:12.680Z,6.25
2023-03-21T06:19:15.282Z,6.22
2023-03-21T06:20:17.552Z,7.03
2023-03-21T06:21:19.639Z,6.47
2023-03-21T06:22:21.808Z,7.63
2023-03-21T06:23:23.824Z,7.57
2023-03-21T06:24:26.873Z,6.95
2023-03-21T06:25:28.813Z,7.18
2023-03-21T06:26:31.183Z,6.53
2023-03-21T06:27:33.913Z,6.35
2023-03-21T06:28:36.965Z,6.75
2023-03-21T06:29:39.158Z,6.35
2023-03-21T06:30:41.346Z,6.65
2023-03-21T06:31:43.395Z,6.50
2023-03-21T06:32:45.447Z,6.00
2023-03-21T06:33:47.410Z,6.60
2023-03-21T06:34:49.573Z,6.10
2023-03-21T06:35:56.567Z,6.63
2023-03-21T06:36:58.673Z,6.78
2023-03-21T06:38:00.683Z,6.20
2023-03-21T06:39:02.656Z,6.28
2023-03-21T06:40:06.352Z,6.40
2023-03-21T06:41:10.544Z,6.05
2023-03-21T06:42:13.201Z,5.93
2023-03-21T06:43:16.731Z,5.85
2023-03-21T06:44:18.780Z,5.80
2023-03-21T06:45:21.080Z,5.68
2023-03-21T06:46:23.232Z,5.75
2023-03-21T06:47:25.460Z,4.78
2023-03-21T06:48:27.984Z,6.22
2023-03-21T06:49:30.035Z,5.60
2023-03-21T06:50:32.202Z,5.50
2023-03-21T06:51:34.267Z,6.30
2023-03-21T06:52:36.535Z,5.53
2023-03-21T06:53:39.239Z,5.93
2023-03-21T06:54:41.340Z,5.82
2023-03-21T06:55:43.439Z,5.70
2023-03-21T06:56:46.435Z,5.57
2023-03-21T06:57:48.544Z,4.90
2023-03-21T06:58:50.608Z,6.55
2023-03-21T06:59:52.577Z,6.13
2023-03-21T07:00:54.802Z,5.72
2023-03-21T07:01:56.965Z,6.53
2023-03-21T07:02:59.194Z,5.47
2023-03-21T07:04:01.229Z,6.07
2023-03-21T07:05:03.702Z,6.70
2023-03-21T07:06:07.736Z,7.55
2023-03-21T07:08:12.993Z,5.10
2023-03-21T07:09:17.947Z,5.68
2023-03-21T07:10:20.008Z,5.63
2023-03-21T07:11:23.552Z,5.20
2023-03-21T07:12:26.144Z,7.20
2023-03-21T07:13:28.210Z,4.93
2023-03-21T07:14:32.167Z,6.55
2023-03-21T07:15:38.448Z,5.85
2023-03-21T07:16:40.762Z,4.70
2023-03-21T07:17:42.702Z,6.78
2023-03-21T07:18:45.440Z,5.85
2023-03-21T07:19:47.524Z,5.40
2023-03-21T07:20:51.955Z,6.20
2023-03-21T07:21:54.052Z,5.53
2023-03-21T07:22:56.508Z,6.45
2023-03-21T07:23:58.521Z,7.22
2023-03-21T07:25:05.064Z,6.10
2023-03-21T07:26:07.904Z,6.03
2023-03-21T07:27:10.094Z,6.57
2023-03-21T07:28:12.211Z,6.28
2023-03-21T07:29:14.274Z,6.00
2023-03-21T07:30:16.908Z,5.55
2023-03-21T07:31:19.726Z,6.22
2023-03-21T07:32:21.911Z,6.28
2023-03-21T07:33:25.069Z,6.43
2023-03-21T07:34:31.808Z,5.30
2023-03-21T07:35:33.920Z,6.38
2023-03-21T07:36:37.187Z,6.60
2023-03-21T07:37:39.992Z,6.82
2023-03-21T07:38:43.737Z,5.95
2023-03-21T07:39:45.723Z,5.72
2023-03-21T07:40:49.283Z,6.00
2023-03-21T07:41:51.381Z,5.85
2023-03-21T07:42:53.396Z,6.03
2023-03-21T07:43:55.463Z,5.68
2023-03-21T07:44:57.801Z,6.72
2023-03-21T07:46:00.711Z,5.78
2023-03-21T07:47:03.033Z,5.88
2023-03-21T07:48:05.697Z,6.68
2023-03-21T07:49:09.107Z,5.60
2023-03-21T07:50:11.758Z,6.30
2023-03-21T07:51:14.312Z,6.13
2023-03-21T07:52:16.571Z,6.00
2023-03-21T07:53:19.353Z,6.03
2023-03-21T07:54:23.252Z,5.55
2023-03-21T07:55:25.777Z,5.65
2023-03-21T07:56:28.289Z,5.60
2023-03-21T07:57:30.547Z,6.35
2023-03-21T07:58:34.535Z,6.28
2023-03-21T07:59:37.010Z,5.95
2023-03-21T08:00:39.164Z,6.03
2023-03-21T08:01:41.697Z,5.93
2023-03-21T08:02:44.147Z,6.30
2023-03-21T08:03:48.493Z,6.25
2023-03-21T08:04:50.862Z,6.03
2023-03-21T08:05:53.255Z,5.78
2023-03-21T08:06:55.522Z,5.55
2023-03-21T08:07:58.230Z,5.63
2023-03-21T08:09:00.499Z,5.75
2023-03-21T08:10:02.691Z,5.70
2023-03-21T08:11:05.498Z,5.35
2023-03-21T08:12:11.508Z,6.32
2023-03-21T08:13:13.942Z,5.47
2023-03-21T08:14:16.116Z,6.30
2023-03-21T08:15:18.785Z,5.88
2023-03-21T08:16:21.743Z,4.80
2023-03-21T08:17:24.014Z,5.20
2023-03-21T08:18:26.276Z,5.25
2023-03-21T08:19:28.528Z,5.15
2023-03-21T08:20:30.643Z,6.07
2023-03-21T08:21:32.871Z,4.97
2023-03-21T08:22:36.343Z,5.75
2023-03-21T08:23:38.508Z,5.63
2023-03-21T08:24:40.742Z,6.47
2023-03-21T08:25:42.923Z,6.00
2023-03-21T08:26:46.281Z,5.20
2023-03-21T08:27:49.607Z,5.00
2023-03-21T08:28:51.951Z,5.50
2023-03-21T08:29:54.138Z,5.30
2023-03-21T08:30:56.385Z,5.82
2023-03-21T08:31:58.810Z,6.22
2023-03-21T08:33:02.212Z,5.70
2023-03-21T08:34:04.297Z,5.43
2023-03-21T08:35:10.438Z,6.00
2023-03-21T08:36:12.695Z,5.43
2023-03-21T08:37:14.688Z,5.47
2023-03-21T08:38:17.317Z,5.07
2023-03-21T08:39:20.657Z,6.10
2023-03-21T08:40:22.839Z,5.30
2023-03-21T08:41:26.105Z,5.55
2023-03-21T08:42:28.006Z,4.57
2023-03-21T08:43:30.560Z,5.00
2023-03-21T08:44:32.544Z,5.47
2023-03-21T08:45:34.667Z,5.15
2023-03-21T08:46:36.700Z,4.95
2023-03-21T08:47:39.668Z,5.20
2023-03-21T08:48:42.411Z,5.38
2023-03-21T08:49:46.034Z,5.30
2023-03-21T08:50:48.453Z,4.78
2023-03-21T08:51:50.811Z,4.63
2023-03-21T08:52:52.844Z,5.13
2023-03-21T08:53:55.004Z,4.60
2023-03-21T08:54:57.256Z,4.88
2023-03-21T08:55:59.534Z,4.60
2023-03-21T08:57:01.630Z,4.38
2023-03-21T08:58:03.850Z,5.00
2023-03-21T08:59:05.856Z,4.30
2023-03-21T09:00:13.321Z,4.57
2023-03-21T09:01:15.869Z,4.93
2023-03-21T09:02:18.359Z,4.40
2023-03-21T09:03:20.635Z,4.75
2023-03-21T09:04:26.284Z,4.78
2023-03-21T09:05:28.808Z,5.40
2023-03-21T09:06:30.897Z,4.47
2023-03-21T09:07:36.454Z,4.70
2023-03-21T09:08:39.136Z,5.05
2023-03-21T09:09:42.573Z,5.07
2023-03-21T09:10:44.761Z,4.97
2023-03-21T09:11:47.065Z,4.25
2023-03-21T09:12:54.305Z,5.05
2023-03-21T09:13:56.334Z,4.25
2023-03-21T09:14:58.442Z,5.38
2023-03-21T09:16:01.582Z,5.22
2023-03-21T09:17:03.981Z,4.45
2023-03-21T09:18:13.573Z,5.55
2023-03-21T09:19:16.224Z,4.75
2023-03-21T09:20:21.135Z,4.88
2023-03-21T09:21:24.110Z,4.13
2023-03-21T09:22:27.471Z,4.63
2023-03-21T09:23:29.665Z,4.80
2023-03-21T09:24:31.898Z,4.82
2023-03-21T09:25:34.161Z,4.75
2023-03-21T09:26:37.235Z,4.72
2023-03-21T09:27:39.613Z,4.82
2023-03-21T09:28:41.701Z,4.30
2023-03-21T09:29:45.220Z,4.65
2023-03-21T09:30:47.320Z,5.03
2023-03-21T09:31:49.968Z,4.57
2023-03-21T09:32:53.739Z,4.53
2023-03-21T09:33:57.786Z,4.70
2023-03-21T09:36:02.308Z,4.07
2023-03-21T09:37:10.366Z,4.60
2023-03-21T09:38:12.618Z,4.90
2023-03-21T09:39:16.548Z,4.45
2023-03-21T09:40:23.417Z,5.07
2023-03-21T09:41:50.331Z,5.05
2023-03-21T09:43:13.401Z,4.55
2023-03-21T09:44:41.976Z,5.25
2023-03-21T09:45:55.104Z,4.05
2023-03-21T09:47:00.570Z,4.47
2023-03-21T09:48:02.895Z,4.55
2023-03-21T09:49:16.921Z,4.30
2023-03-21T09:50:45.458Z,4.15
2023-03-21T09:51:54.513Z,4.28
2023-03-21T09:53:03.917Z,4.47
2023-03-21T09:54:14.268Z,5.00
2023-03-21T09:56:22.959Z,4.28
2023-03-21T09:57:27.617Z,4.28
2023-03-21T09:58:47.559Z,4.47
2023-03-21T09:59:53.868Z,4.35
2023-03-21T10:01:41.649Z,4.13
2023-03-21T10:02:48.059Z,4.63
2023-03-21T10:03:50.975Z,4.03
2023-03-21T10:04:53.159Z,4.22
2023-03-21T10:06:01.330Z,4.18
2023-03-21T10:07:04.262Z,6.20
2023-03-21T10:08:13.501Z,6.38
2023-03-21T10:09:21.756Z,11.02
2023-03-21T10:10:34.614Z,5.18
2023-03-21T10:11:50.632Z,5.38
2023-03-21T10:12:55.046Z,4.15
2023-03-21T10:14:11.925Z,4.40
2023-03-21T10:15:20.138Z,3.53
2023-03-21T10:16:32.486Z,4.22
2023-03-21T10:17:42.815Z,4.20
2023-03-21T10:19:50.391Z,3.40
2023-03-21T10:20:53.326Z,4.05
2023-03-21T10:22:03.860Z,4.65
2023-03-21T10:23:13.008Z,3.92
2023-03-21T10:24:22.091Z,3.42
2023-03-21T10:25:51.954Z,4.53
2023-03-21T10:26:56.383Z,4.13
2023-03-21T10:27:59.882Z,3.97
2023-03-21T10:29:02.864Z,3.97
2023-03-21T10:30:07.734Z,4.30
2023-03-21T10:31:15.456Z,4.10
2023-03-21T10:32:18.413Z,3.65
2023-03-21T10:33:25.081Z,4.22
2023-03-21T10:34:48.144Z,4.32
2023-03-21T10:35:55.743Z,4.03
2023-03-21T10:36:58.548Z,4.32
2023-03-21T10:38:01.847Z,4.93
2023-03-21T10:39:16.602Z,4.70
2023-03-21T10:40:18.987Z,4.50
2023-03-21T10:41:21.536Z,4.60
2023-03-21T10:42:28.704Z,4.60
2023-03-21T10:43:34.689Z,5.00
2023-03-21T10:44:37.127Z,4.75
2023-03-21T10:45:39.536Z,4.70
2023-03-21T10:46:57.213Z,5.13
2023-03-21T10:47:59.852Z,4.82
2023-03-21T10:49:02.898Z,4.85
2023-03-21T10:50:17.848Z,4.53
2023-03-21T10:51:23.558Z,6.50
2023-03-21T10:52:29.324Z,4.68
2023-03-21T10:53:35.631Z,5.10
2023-03-21T10:54:37.695Z,5.28
2023-03-21T10:55:42.332Z,5.15
2023-03-21T10:57:17.547Z,4.72
2023-03-21T10:58:25.340Z,4.85
2023-03-21T10:59:34.969Z,5.53
2023-03-21T11:00:45.368Z,5.82
2023-03-21T11:01:51.883Z,4.65
2023-03-21T11:02:54.711Z,5.30
2023-03-21T11:04:01.218Z,5.57
2023-03-21T11:05:15.145Z,5.32
2023-03-21T11:06:27.531Z,5.60
2023-03-21T11:07:31.952Z,5.22
2023-03-21T11:08:46.491Z,4.72
2023-03-21T11:09:54.610Z,5.15
2023-03-21T11:11:04.953Z,4.97
2023-03-21T11:12:35.263Z,4.93
2023-03-21T11:13:40.926Z,5.03
2023-03-21T11:14:46.548Z,4.88
2023-03-21T11:15:57.210Z,5.47
2023-03-21T11:16:59.502Z,4.80
2023-03-21T11:18:14.801Z,5.78
2023-03-21T11:19:19.582Z,5.03
2023-03-21T11:20:22.604Z,4.70
2023-03-21T11:21:29.654Z,5.35
2023-03-21T11:22:43.720Z,5.05
2023-03-21T11:23:48.845Z,5.20
2023-03-21T11:24:54.459Z,4.85
2023-03-21T11:25:58.920Z,5.32
2023-03-21T11:27:01.800Z,4.45
2023-03-21T11:28:15.858Z,5.30
2023-03-21T11:29:32.030Z,4.93
2023-03-21T11:30:34.290Z,4.93
2023-03-21T11:31:41.311Z,4.75
2023-03-21T11:32:43.409Z,4.55
2023-03-21T11:33:53.342Z,5.50
2023-03-21T11:35:02.312Z,4.80
2023-03-21T11:36:27.337Z,4.85
2023-03-21T11:37:39.753Z,5.78
2023-03-21T11:38:41.706Z,4.95
2023-03-21T11:39:45.696Z,5.57
2023-03-21T11:41:58.856Z,4.30
2023-03-21T11:43:17.314Z,4.63
2023-03-21T11:44:35.681Z,4.32
2023-03-21T11:45:39.152Z,4.93
2023-03-21T11:46:41.496Z,4.75
2023-03-21T11:47:44.506Z,4.75
2023-03-21T11:48:49.107Z,5.18
2023-03-21T11:49:58.303Z,4.72
2023-03-21T11:51:13.425Z,4.50
2023-03-21T11:52:22.824Z,4.30
2023-03-21T11:53:40.710Z,4.80
2023-03-21T11:54:51.795Z,4.05
2023-03-21T11:56:24.505Z,4.80
2023-03-21T11:57:52.041Z,5.00
2023-03-21T11:59:23.400Z,4.03
2023-03-21T12:00:33.737Z,3.70
2023-03-21T12:02:00.410Z,4.20
2023-03-21T12:03:30.703Z,4.57
2023-03-21T12:04:34.842Z,3.45
2023-03-21T12:06:02.204Z,3.92
2023-03-21T12:07:19.484Z,3.50
2023-03-21T12:08:49.740Z,3.92
2023-03-21T12:10:00.771Z,3.92
2023-03-21T12:11:27.358Z,4.25
2023-03-21T12:12:42.506Z,4.07
2023-03-21T12:14:16.996Z,4.13
2023-03-21T12:15:33.300Z,3.60
2023-03-21T12:16:53.514Z,3.72
2023-03-21T12:18:07.164Z,4.38
2023-03-21T12:19:21.917Z,3.72
2023-03-21T12:20:24.064Z,3.95
2023-03-21T12:21:32.140Z,3.67
2023-03-21T12:22:40.017Z,4.13
2023-03-21T12:23:42.243Z,4.97
2023-03-21T12:24:54.903Z,3.60
2023-03-21T12:26:04.269Z,3.88
2023-03-21T12:27:42.209Z,3.50
2023-03-21T12:29:10.584Z,3.30
2023-03-21T12:30:38.424Z,3.42
2023-03-21T12:31:43.100Z,4.10
2023-03-21T12:33:04.460Z,3.65
2023-03-21T12:34:14.989Z,4.60
2023-03-21T12:35:24.085Z,3.90
2023-03-21T12:36:44.836Z,3.17
2023-03-21T12:38:25.345Z,3.20
2023-03-21T12:39:37.299Z,3.28
2023-03-21T12:41:03.789Z,3.90
2023-03-21T12:42:27.383Z,3.83
2023-03-21T12:43:32.447Z,3.75
2023-03-21T12:44:39.554Z,3.63
2023-03-21T12:45:49.465Z,3.33
2023-03-21T12:46:57.415Z,3.40
2023-03-21T12:48:17.746Z,3.58
2023-03-21T12:49:31.335Z,4.22
2023-03-21T12:50:37.579Z,3.85
2023-03-21T12:51:48.530Z,3.67
2023-03-21T12:52:57.760Z,4.05
2023-03-21T12:54:13.580Z,3.42
2023-03-21T12:55:36.452Z,4.20
2023-03-21T12:56:43.811Z,4.30
2023-03-21T12:57:57.176Z,3.95
2023-03-21T12:59:12.326Z,3.90
2023-03-21T13:00:26.911Z,3.88
2023-03-21T13:01:29.910Z,4.03
2023-03-21T13:02:33.546Z,4.15
2023-03-21T13:03:45.871Z,3.63
2023-03-21T13:05:08.705Z,3.83
2023-03-21T13:06:15.181Z,3.22
2023-03-21T13:07:21.251Z,4.63
2023-03-21T13:08:32.275Z,6.45
2023-03-21T13:09:38.426Z,3.42
2023-03-21T13:10:44.149Z,3.53
2023-03-21T13:11:47.899Z,3.63
2023-03-21T13:13:18.434Z,4.03
2023-03-21T13:14:34.504Z,3.28
2023-03-21T13:16:07.796Z,3.15
2023-03-21T13:17:31.523Z,4.20
2023-03-21T13:18:42.727Z,3.97
2023-03-21T13:19:52.979Z,3.53
2023-03-21T13:21:01.996Z,3.65
2023-03-21T13:22:16.358Z,3.35
2023-03-21T13:23:22.221Z,2.80
2023-03-21T13:24:26.201Z,3.15
2023-03-21T13:26:46.326Z,3.38
2023-03-21T13:27:55.596Z,3.80
2023-03-21T13:28:58.528Z,2.97
2023-03-21T13:30:22.591Z,3.00
2023-03-21T13:31:45.239Z,3.00
2023-03-21T13:33:08.083Z,3.15
2023-03-21T13:34:10.531Z,2.88
2023-03-21T13:35:15.296Z,3.53
2023-03-21T13:36:24.940Z,3.05
2023-03-21T13:37:33.917Z,3.35
2023-03-21T13:38:40.373Z,3.78
2023-03-21T13:39:49.430Z,2.85
2023-03-21T13:40:58.706Z,3.38
2023-03-21T13:42:06.263Z,3.45
2023-03-21T13:43:34.068Z,3.33
2023-03-21T13:44:50.258Z,3.17
2023-03-21T13:45:54.226Z,3.45
2023-03-21T13:47:02.797Z,3.10
2023-03-21T13:48:25.414Z,3.67
2023-03-21T13:49:35.006Z,3.80
2023-03-21T13:51:00.740Z,4.03
2023-03-21T13:52:27.936Z,3.70
2023-03-21T13:53:45.665Z,3.90
2023-03-21T13:54:57.970Z,3.83
2023-03-21T13:56:31.485Z,3.65
2023-03-21T13:57:38.793Z,4.35
2023-03-21T13:58:52.517Z,3.60
2023-03-21T14:00:21.245Z,3.97
2023-03-21T14:01:42.587Z,3.92
2023-03-21T14:02:53.328Z,3.95
2023-03-21T14:04:09.930Z,3.97
2023-03-21T14:06:26.398Z,3.58
2023-03-21T14:07:35.022Z,3.95
2023-03-21T14:08:39.964Z,2.85
2023-03-21T14:09:54.592Z,3.75
2023-03-21T14:11:00.376Z,3.63
2023-03-21T14:12:07.791Z,4.15
2023-03-21T14:13:16.601Z,4.00
2023-03-21T14:14:21.704Z,3.67
2023-03-21T14:15:27.807Z,3.53
2023-03-21T14:16:32.236Z,3.30
2023-03-21T14:17:35.926Z,3.67
2023-03-21T14:18:53.886Z,3.72
2023-03-21T14:20:01.462Z,3.97
2023-03-21T14:21:06.997Z,3.95
2023-03-21T14:22:13.646Z,3.38
2023-03-21T14:23:17.512Z,4.15
2023-03-21T14:25:29.196Z,3.17
2023-03-21T14:26:36.929Z,2.97
2023-03-21T14:27:43.524Z,3.17
2023-03-21T14:28:50.520Z,2.85
2023-03-21T14:29:53.585Z,3.40
2023-03-21T14:31:00.299Z,3.45
2023-03-21T14:32:04.437Z,3.28
2023-03-21T14:34:11.766Z,3.63
2023-03-21T14:35:14.147Z,3.15
2023-03-21T14:36:20.547Z,3.05
2023-03-21T14:37:34.450Z,3.42
2023-03-21T14:38:39.550Z,3.00
2023-03-21T14:39:41.689Z,3.08
2023-03-21T14:40:48.608Z,3.85
2023-03-21T14:41:56.059Z,3.05
2023-03-21T14:42:58.984Z,3.47
2023-03-21T14:44:28.221Z,3.08
2023-03-21T14:45:33.523Z,2.78
2023-03-21T14:46:35.617Z,3.22
2023-03-21T14:47:38.254Z,3.13
2023-03-21T14:48:40.401Z,3.70
2023-03-21T14:49:42.412Z,3.33
2023-03-21T14:50:54.431Z,3.58
2023-03-21T14:52:17.872Z,3.20
2023-03-21T14:53:29.354Z,3.10
2023-03-21T14:54:32.357Z,3.00
2023-03-21T14:55:46.607Z,3.92
2023-03-21T14:57:13.787Z,3.30
2023-03-21T14:58:19.305Z,2.70
2023-03-21T14:59:26.058Z,2.92
2023-03-21T15:00:30.729Z,4.55
2023-03-21T15:01:35.241Z,3.13
2023-03-21T15:02:40.355Z,2.95
2023-03-21T15:03:45.949Z,3.05
2023-03-21T15:04:57.347Z,2.33
2023-03-21T15:06:00.420Z,3.47
2023-03-21T15:07:05.414Z,3.20
2023-03-21T15:08:09.518Z,3.40
2023-03-21T15:10:18.496Z,2.28
2023-03-21T15:11:38.373Z,2.95
2023-03-21T15:12:50.962Z,2.67